sensor_id;sensor_type;location;lat;lon;timestamp;pressure;altitude;pressure_sealevel;temperature;humidity
5872;BME280;2962;51.312;7.378;2023-05-10T00:01:39;96722.53;;;10.70;100.00
5872;BME280;2962;51.312;7.378;2023-05-10T00:04:05;96731.47;;;10.74;100.00
5872;BME280;2962;51.312;7.378;2023-05-10T00:06:30;96733.00;;;10.68;100.00
5872;BME280;2962;51.312;7.378;2023-05-10T00:08:56;96735.38;;;10.69;100.00
5872;BME280;2962;51.312;7.378;2023-05-10T00:11:22;96727.56;;;10.64;100.00
5872;BME280;2962;51.312;7.378;2023-05-10T00:13:47;96725.22;;;10.63;100.00
5872;BME280;2962;51.312;7.378;2023-05-10T00:16:12;96733.03;;;10.71;100.00
5872;BME280;2962;51.312;7.378;2023-05-10T00:18:39;96725.25;;;10.66;100.00
5872;BME280;2962;51.312;7.378;2023-05-10T00:21:04;96726.78;;;10.67;100.00
5872;BME280;2962;51.312;7.378;2023-05-10T00:23:30;96736.53;;;10.61;100.00
5872;BME280;2962;51.312;7.378;2023-05-10T00:25:55;96741.56;;;10.59;100.00
5872;BME280;2962;51.312;7.378;2023-05-10T00:28:21;96728.34;;;10.58;100.00
5872;BME280;2962;51.312;7.378;2023-05-10T00:30:46;96708.47;;;10.43;100.00
5872;BME280;2962;51.312;7.378;2023-05-10T00:33:11;96730.69;;;10.63;100.00
5872;BME280;2962;51.312;7.378;2023-05-10T00:35:37;96722.91;;;10.58;100.00
5872;BME280;2962;51.312;7.378;2023-05-10T00:38:03;96705.75;;;10.54;100.00
5872;BME280;2962;51.312;7.378;2023-05-10T00:40:28;96723.28;;;10.67;100.00
5872;BME280;2962;51.312;7.378;2023-05-10T00:42:53;96706.91;;;10.52;100.00
5872;BME280;2962;51.312;7.378;2023-05-10T00:45:19;96708.47;;;10.46;100.00
5872;BME280;2962;51.312;7.378;2023-05-10T00:47:44;96704.56;;;10.47;100.00
5872;BME280;2962;51.312;7.378;2023-05-10T00:50:10;96722.88;;;10.54;100.00
5872;BME280;2962;51.312;7.378;2023-05-10T00:52:36;96730.66;;;10.52;100.00
5872;BME280;2962;51.312;7.378;2023-05-10T00:55:02;96719.41;;;10.57;100.00
5872;BME280;2962;51.312;7.378;2023-05-10T00:57:28;96713.13;;;10.46;100.00
5872;BME280;2962;51.312;7.378;2023-05-10T00:59:53;96708.47;;;10.50;100.00
5872;BME280;2962;51.312;7.378;2023-05-10T01:02:19;96728.72;;;10.60;100.00
5872;BME280;2962;51.312;7.378;2023-05-10T01:04:44;96712.00;;;10.54;100.00
5872;BME280;2962;51.312;7.378;2023-05-10T01:07:09;96727.97;;;10.63;100.00
5872;BME280;2962;51.312;7.378;2023-05-10T01:09:35;96723.28;;;10.67;100.00
5872;BME280;2962;51.312;7.378;2023-05-10T01:12:01;96720.97;;;10.65;100.00
5872;BME280;2962;51.312;7.378;2023-05-10T01:14:27;96726.00;;;10.63;100.00
5872;BME280;2962;51.312;7.378;2023-05-10T01:16:53;96712.00;;;10.61;100.00
5872;BME280;2962;51.312;7.378;2023-05-10T01:19:22;96721.72;;;10.62;100.00
5872;BME280;2962;51.312;7.378;2023-05-10T01:33:30;96724.47;;;10.62;100.00
5872;BME280;2962;51.312;7.378;2023-05-10T01:36:19;96717.84;;;10.63;100.00
5872;BME280;2962;51.312;7.378;2023-05-10T01:39:02;96712.00;;;10.61;100.00
5872;BME280;2962;51.312;7.378;2023-05-10T01:41:45;96743.13;;;10.67;100.00
5872;BME280;2962;51.312;7.378;2023-05-10T01:46:53;96732.63;;;10.66;100.00
5872;BME280;2962;51.312;7.378;2023-05-10T01:49:31;96731.88;;;10.65;100.00
5872;BME280;2962;51.312;7.378;2023-05-10T01:52:01;96720.97;;;10.65;100.00
5872;BME280;2962;51.312;7.378;2023-05-10T01:54:29;96739.66;;;10.74;100.00
5872;BME280;2962;51.312;7.378;2023-05-10T01:56:59;96734.59;;;10.72;100.00
5872;BME280;2962;51.312;7.378;2023-05-10T01:59:28;96738.50;;;10.79;100.00
5872;BME280;2962;51.312;7.378;2023-05-10T02:01:57;96728.75;;;10.70;100.00
5872;BME280;2962;51.312;7.378;2023-05-10T02:04:24;96732.25;;;10.67;100.00
5872;BME280;2962;51.312;7.378;2023-05-10T02:06:51;96728.75;;;10.67;100.00
5872;BME280;2962;51.312;7.378;2023-05-10T02:09:18;96732.25;;;10.67;100.00
5872;BME280;2962;51.312;7.378;2023-05-10T02:11:46;96736.16;;;10.70;100.00
5872;BME280;2962;51.312;7.378;2023-05-10T02:14:13;96742.75;;;10.65;100.00
5872;BME280;2962;51.312;7.378;2023-05-10T02:16:41;96740.03;;;10.62;100.00
5872;BME280;2962;51.312;7.378;2023-05-10T02:19:07;96740.81;;;10.62;100.00
5872;BME280;2962;51.312;7.378;2023-05-10T02:21:34;96725.59;;;10.54;100.00
5872;BME280;2962;51.312;7.378;2023-05-10T02:24:02;96754.41;;;10.62;100.00
5872;BME280;2962;51.312;7.378;2023-05-10T02:26:28;96754.03;;;10.64;100.00
5872;BME280;2962;51.312;7.378;2023-05-10T02:28:56;96740.78;;;10.55;100.00
5872;BME280;2962;51.312;7.378;2023-05-10T02:31:22;96740.78;;;10.55;100.00
5872;BME280;2962;51.312;7.378;2023-05-10T02:33:48;96748.53;;;10.53;100.00
5872;BME280;2962;51.312;7.378;2023-05-10T02:36:15;96747.41;;;10.58;100.00
5872;BME280;2962;51.312;7.378;2023-05-10T02:38:40;96757.50;;;10.61;100.00
5872;BME280;2962;51.312;7.378;2023-05-10T02:41:08;96761.81;;;10.62;100.00
5872;BME280;2962;51.312;7.378;2023-05-10T02:43:34;96757.91;;;10.59;100.00
5872;BME280;2962;51.312;7.378;2023-05-10T02:46:00;96761.41;;;10.63;100.00
5872;BME280;2962;51.312;7.378;2023-05-10T02:48:26;96751.69;;;10.59;100.00
5872;BME280;2962;51.312;7.378;2023-05-10T02:50:55;96763.34;;;10.59;100.00
5872;BME280;2962;51.312;7.378;2023-05-10T02:53:23;96762.56;;;10.51;100.00
5872;BME280;2962;51.312;7.378;2023-05-10T02:55:57;96759.84;;;10.51;100.00
5872;BME280;2962;51.312;7.378;2023-05-10T02:58:24;96755.94;;;10.42;100.00
5872;BME280;2962;51.312;7.378;2023-05-10T03:00:49;96765.25;;;10.48;100.00
5872;BME280;2962;51.312;7.378;2023-05-10T03:03:14;96774.19;;;10.34;100.00
5872;BME280;2962;51.312;7.378;2023-05-10T03:05:40;96765.97;;;10.27;100.00
5872;BME280;2962;51.312;7.378;2023-05-10T03:08:05;96763.19;;;10.20;100.00
5872;BME280;2962;51.312;7.378;2023-05-10T03:10:32;96772.06;;;10.10;100.00
5872;BME280;2962;51.312;7.378;2023-05-10T03:13:39;96766.59;;;10.06;100.00
5872;BME280;2962;51.312;7.378;2023-05-10T03:16:08;96772.03;;;10.02;100.00
5872;BME280;2962;51.312;7.378;2023-05-10T03:21:22;96767.38;;;10.03;100.00
5872;BME280;2962;51.312;7.378;2023-05-10T03:24:07;96779.84;;;10.04;100.00
5872;BME280;2962;51.312;7.378;2023-05-10T03:26:33;96779.78;;;9.97;100.00
5872;BME280;2962;51.312;7.378;2023-05-10T03:29:00;96778.56;;;9.91;100.00
5872;BME280;2962;51.312;7.378;2023-05-10T03:31:26;96784.81;;;9.95;100.00
5872;BME280;2962;51.312;7.378;2023-05-10T03:33:52;96790.22;;;9.91;100.00
5872;BME280;2962;51.312;7.378;2023-05-10T03:36:18;96769.56;;;9.79;100.00
5872;BME280;2962;51.312;7.378;2023-05-10T03:38:44;96788.72;;;9.94;100.00
5872;BME280;2962;51.312;7.378;2023-05-10T03:41:09;96798.03;;;9.93;100.00
5872;BME280;2962;51.312;7.378;2023-05-10T03:43:34;96794.16;;;9.94;100.00
5872;BME280;2962;51.312;7.378;2023-05-10T03:46:03;96784.78;;;9.91;100.00
5872;BME280;2962;51.312;7.378;2023-05-10T03:48:29;96788.31;;;9.92;100.00
5872;BME280;2962;51.312;7.378;2023-05-10T03:50:54;96796.91;;;10.01;100.00
5872;BME280;2962;51.312;7.378;2023-05-10T03:53:19;96788.00;;;10.08;100.00
5872;BME280;2962;51.312;7.378;2023-05-10T03:55:45;96798.13;;;10.11;100.00
5872;BME280;2962;51.312;7.378;2023-05-10T03:58:10;96801.66;;;10.11;100.00
5872;BME280;2962;51.312;7.378;2023-05-10T04:00:36;96804.63;;;9.95;100.00
5872;BME280;2962;51.312;7.378;2023-05-10T04:03:02;96801.16;;;9.98;100.00
5872;BME280;2962;51.312;7.378;2023-05-10T04:05:27;96807.84;;;10.08;100.00
5872;BME280;2962;51.312;7.378;2023-05-10T04:07:52;96794.66;;;10.14;100.00
5872;BME280;2962;51.312;7.378;2023-05-10T04:10:17;96804.44;;;10.25;100.00
5872;BME280;2962;51.312;7.378;2023-05-10T04:12:43;96798.59;;;10.23;100.00
5872;BME280;2962;51.312;7.378;2023-05-10T04:15:08;96795.06;;;10.19;100.00
5872;BME280;2962;51.312;7.378;2023-05-10T04:17:34;96807.84;;;10.08;100.00
5872;BME280;2962;51.312;7.378;2023-05-10T04:19:59;96809.53;;;10.27;100.00
5872;BME280;2962;51.312;7.378;2023-05-10T04:22:24;96798.09;;;10.00;100.00
5872;BME280;2962;51.312;7.378;2023-05-10T04:24:49;96807.13;;;10.22;100.00
5872;BME280;2962;51.312;7.378;2023-05-10T04:27:15;96803.22;;;10.16;100.00
5872;BME280;2962;51.312;7.378;2023-05-10T04:29:40;96784.50;;;10.11;100.00
5872;BME280;2962;51.312;7.378;2023-05-10T04:32:06;96811.38;;;10.16;100.00
5872;BME280;2962;51.312;7.378;2023-05-10T04:34:31;96802.47;;;10.19;100.00
5872;BME280;2962;51.312;7.378;2023-05-10T04:36:59;96811.41;;;10.19;100.00
5872;BME280;2962;51.312;7.378;2023-05-10T04:39:24;96807.13;;;10.22;100.00
5872;BME280;2962;51.312;7.378;2023-05-10T04:41:49;96800.47;;;10.12;100.00
5872;BME280;2962;51.312;7.378;2023-05-10T04:44:14;96813.72;;;10.17;100.00
5872;BME280;2962;51.312;7.378;2023-05-10T04:46:40;96805.09;;;10.05;100.00
5872;BME280;2962;51.312;7.378;2023-05-10T04:49:05;96821.44;;;10.08;100.00
5872;BME280;2962;51.312;7.378;2023-05-10T04:51:30;96830.81;;;10.18;100.00
5872;BME280;2962;51.312;7.378;2023-05-10T04:53:56;96819.25;;;10.28;100.00
5872;BME280;2962;51.312;7.378;2023-05-10T04:56:22;96829.38;;;10.31;100.00
5872;BME280;2962;51.312;7.378;2023-05-10T04:58:47;96813.75;;;10.21;100.00
5872;BME280;2962;51.312;7.378;2023-05-10T05:01:12;96829.38;;;10.31;100.00
5872;BME280;2962;51.312;7.378;2023-05-10T05:03:38;96829.41;;;10.35;100.00
5872;BME280;2962;51.312;7.378;2023-05-10T05:06:03;96823.94;;;10.31;100.00
5872;BME280;2962;51.312;7.378;2023-05-10T05:08:29;96833.69;;;10.36;100.00
5872;BME280;2962;51.312;7.378;2023-05-10T05:10:54;96843.44;;;10.40;100.00
5872;BME280;2962;51.312;7.378;2023-05-10T05:13:19;96838.38;;;10.39;100.00
5872;BME280;2962;51.312;7.378;2023-05-10T05:15:45;96841.13;;;10.42;100.00
5872;BME280;2962;51.312;7.378;2023-05-10T05:18:10;96836.44;;;10.43;100.00
5872;BME280;2962;51.312;7.378;2023-05-10T05:20:36;96838.78;;;10.44;100.00
5872;BME280;2962;51.312;7.378;2023-05-10T05:23:02;96837.56;;;10.35;100.00
5872;BME280;2962;51.312;7.378;2023-05-10T05:25:27;96846.91;;;10.37;100.00
5872;BME280;2962;51.312;7.378;2023-05-10T05:27:52;96844.56;;;10.32;100.00
5872;BME280;2962;51.312;7.378;2023-05-10T05:30:18;96852.03;;;10.46;100.00
5872;BME280;2962;51.312;7.378;2023-05-10T05:32:43;96848.91;;;10.47;100.00
5872;BME280;2962;51.312;7.378;2023-05-10T05:35:08;96839.16;;;10.39;100.00
5872;BME280;2962;51.312;7.378;2023-05-10T05:37:34;96857.84;;;10.48;100.00
5872;BME280;2962;51.312;7.378;2023-05-10T05:40:00;96850.09;;;10.50;100.00
5872;BME280;2962;51.312;7.378;2023-05-10T05:42:26;96849.31;;;10.46;100.00
5872;BME280;2962;51.312;7.378;2023-05-10T05:44:52;96852.03;;;10.46;100.00
5872;BME280;2962;51.312;7.378;2023-05-10T05:47:17;96854.41;;;10.55;100.00
5872;BME280;2962;51.312;7.378;2023-05-10T05:49:42;96853.63;;;10.54;100.00
5872;BME280;2962;51.312;7.378;2023-05-10T05:52:10;96873.88;;;10.64;100.00
5872;BME280;2962;51.312;7.378;2023-05-10T05:54:36;96865.38;;;10.72;100.00
5872;BME280;2962;51.312;7.378;2023-05-10T05:57:01;96866.16;;;10.73;100.00
5872;BME280;2962;51.312;7.378;2023-05-10T05:59:27;96867.69;;;10.70;100.00
5872;BME280;2962;51.312;7.378;2023-05-10T06:01:52;96858.75;;;10.70;100.00
5872;BME280;2962;51.312;7.378;2023-05-10T06:04:18;96859.91;;;10.69;100.00
5872;BME280;2962;51.312;7.378;2023-05-10T06:06:44;96872.72;;;10.68;100.00
5872;BME280;2962;51.312;7.378;2023-05-10T06:09:09;96871.22;;;10.78;100.00
5872;BME280;2962;51.312;7.378;2023-05-10T06:11:35;96885.72;;;10.96;100.00
5872;BME280;2962;51.312;7.378;2023-05-10T06:14:01;96897.41;;;11.00;100.00
5872;BME280;2962;51.312;7.378;2023-05-10T06:16:27;96882.59;;;10.98;100.00
5872;BME280;2962;51.312;7.378;2023-05-10T06:18:53;96889.63;;;11.06;100.00
5872;BME280;2962;51.312;7.378;2023-05-10T06:21:18;96904.03;;;11.03;100.00
5872;BME280;2962;51.312;7.378;2023-05-10T06:23:43;96883.78;;;11.04;100.00
5872;BME280;2962;51.312;7.378;2023-05-10T06:26:09;96908.34;;;11.08;100.00
5872;BME280;2962;51.312;7.378;2023-05-10T06:28:34;96903.72;;;11.22;100.00
5872;BME280;2962;51.312;7.378;2023-05-10T06:31:00;96894.72;;;11.08;100.00
5872;BME280;2962;51.312;7.378;2023-05-10T06:33:25;96906.03;;;11.17;100.00
5872;BME280;2962;51.312;7.378;2023-05-10T06:35:51;96898.25;;;11.15;100.00
5872;BME280;2962;51.312;7.378;2023-05-10T06:38:16;96904.09;;;11.24;100.00
5872;BME280;2962;51.312;7.378;2023-05-10T06:40:42;96908.03;;;11.45;100.00
5872;BME280;2962;51.312;7.378;2023-05-10T06:43:07;96901.84;;;11.77;100.00
5872;BME280;2962;51.312;7.378;2023-05-10T06:45:32;96912.03;;;12.08;100.00
5872;BME280;2962;51.312;7.378;2023-05-10T06:47:58;96890.19;;;12.15;100.00
5872;BME280;2962;51.312;7.378;2023-05-10T06:50:23;96881.22;;;11.90;100.00
5872;BME280;2962;51.312;7.378;2023-05-10T06:52:48;96909.28;;;11.97;100.00
5872;BME280;2962;51.312;7.378;2023-05-10T06:55:14;96897.56;;;11.83;100.00
5872;BME280;2962;51.312;7.378;2023-05-10T06:57:39;96907.31;;;11.87;100.00
5872;BME280;2962;51.312;7.378;2023-05-10T07:00:05;96913.56;;;11.95;100.00
5872;BME280;2962;51.312;7.378;2023-05-10T07:02:30;96910.84;;;12.09;100.00
5872;BME280;2962;51.312;7.378;2023-05-10T07:04:56;96910.06;;;12.23;100.00
5872;BME280;2962;51.312;7.378;2023-05-10T07:07:21;96918.66;;;12.11;100.00
5872;BME280;2962;51.312;7.378;2023-05-10T07:09:47;96917.84;;;12.14;100.00
5872;BME280;2962;51.312;7.378;2023-05-10T07:12:12;96918.63;;;12.43;100.00
5872;BME280;2962;51.312;7.378;2023-05-10T07:14:37;96915.13;;;12.35;100.00
5872;BME280;2962;51.312;7.378;2023-05-10T07:17:03;96922.13;;;12.33;100.00
5872;BME280;2962;51.312;7.378;2023-05-10T07:19:31;96922.53;;;12.35;100.00
5872;BME280;2962;51.312;7.378;2023-05-10T07:21:57;96915.53;;;12.27;100.00
5872;BME280;2962;51.312;7.378;2023-05-10T07:24:23;96916.69;;;12.22;100.00
5872;BME280;2962;51.312;7.378;2023-05-10T07:26:49;96920.19;;;12.30;100.00
5872;BME280;2962;51.312;7.378;2023-05-10T07:29:14;96912.03;;;12.05;100.00
5872;BME280;2962;51.312;7.378;2023-05-10T07:31:40;96929.56;;;12.00;100.00
5872;BME280;2962;51.312;7.378;2023-05-10T07:34:08;96933.03;;;11.83;100.00
5872;BME280;2962;51.312;7.378;2023-05-10T07:36:34;96929.13;;;11.66;100.00
5872;BME280;2962;51.312;7.378;2023-05-10T07:39:00;96934.16;;;11.60;100.00
5872;BME280;2962;51.312;7.378;2023-05-10T07:41:25;96940.78;;;11.56;100.00
5872;BME280;2962;51.312;7.378;2023-05-10T07:43:51;96941.97;;;11.55;100.00
5872;BME280;2962;51.312;7.378;2023-05-10T07:46:16;96934.16;;;11.49;100.00
5872;BME280;2962;51.312;7.378;2023-05-10T07:48:41;96946.63;;;11.47;100.00
5872;BME280;2962;51.312;7.378;2023-05-10T07:51:07;96942.75;;;11.55;100.00
5872;BME280;2962;51.312;7.378;2023-05-10T07:53:34;96943.94;;;11.58;100.00
5872;BME280;2962;51.312;7.378;2023-05-10T07:56:21;96950.84;;;11.34;100.00
5872;BME280;2962;51.312;7.378;2023-05-10T07:58:46;96947.75;;;11.32;100.00
5872;BME280;2962;51.312;7.378;2023-05-10T08:01:12;96958.28;;;11.37;100.00
5872;BME280;2962;51.312;7.378;2023-05-10T08:03:37;96955.13;;;11.20;100.00
5872;BME280;2962;51.312;7.378;2023-05-10T08:06:02;96958.19;;;11.12;100.00
5872;BME280;2962;51.312;7.378;2023-05-10T08:08:28;96953.47;;;10.98;100.00
5872;BME280;2962;51.312;7.378;2023-05-10T08:10:53;96955.03;;;11.03;100.00
5872;BME280;2962;51.312;7.378;2023-05-10T08:13:19;96959.34;;;11.07;100.00
5872;BME280;2962;51.312;7.378;2023-05-10T08:15:44;96975.34;;;11.12;100.00
5872;BME280;2962;51.312;7.378;2023-05-10T08:18:09;96973.00;;;11.14;100.00
5872;BME280;2962;51.312;7.378;2023-05-10T08:20:35;96981.16;;;11.14;100.00
5872;BME280;2962;51.312;7.378;2023-05-10T08:23:03;96963.28;;;11.20;100.00
5872;BME280;2962;51.312;7.378;2023-05-10T08:25:28;96979.69;;;11.28;100.00
5872;BME280;2962;51.312;7.378;2023-05-10T08:27:54;96970.75;;;11.41;100.00
5872;BME280;2962;51.312;7.378;2023-05-10T08:30:19;96979.75;;;11.56;100.00
5872;BME280;2962;51.312;7.378;2023-05-10T08:32:45;96968.50;;;11.79;100.00
5872;BME280;2962;51.312;7.378;2023-05-10T08:35:10;96977.94;;;12.21;100.00
5872;BME280;2962;51.312;7.378;2023-05-10T08:37:35;96965.47;;;12.27;100.00
5872;BME280;2962;51.312;7.378;2023-05-10T08:40:01;96982.59;;;12.53;100.00
5872;BME280;2962;51.312;7.378;2023-05-10T08:42:28;96966.19;;;12.74;100.00
5872;BME280;2962;51.312;7.378;2023-05-10T08:44:56;96971.25;;;12.72;100.00
5872;BME280;2962;51.312;7.378;2023-05-10T08:47:22;96978.28;;;12.84;100.00
5872;BME280;2962;51.312;7.378;2023-05-10T08:49:48;96981.78;;;12.88;100.00
5872;BME280;2962;51.312;7.378;2023-05-10T08:52:17;96965.00;;;12.64;100.00
5872;BME280;2962;51.312;7.378;2023-05-10T08:54:43;96967.00;;;12.53;100.00
5872;BME280;2962;51.312;7.378;2023-05-10T08:57:09;96979.09;;;12.63;100.00
5872;BME280;2962;51.312;7.378;2023-05-10T08:59:35;96975.91;;;12.93;100.00
5872;BME280;2962;51.312;7.378;2023-05-10T09:02:01;96973.81;;;13.36;100.00
5872;BME280;2962;51.312;7.378;2023-05-10T09:04:27;96967.13;;;13.41;100.00
5872;BME280;2962;51.312;7.378;2023-05-10T09:06:54;96973.94;;;13.85;100.00
5872;BME280;2962;51.312;7.378;2023-05-10T09:09:20;96977.97;;;14.22;100.00
5872;BME280;2962;51.312;7.378;2023-05-10T09:11:46;96986.47;;;14.38;100.00
5872;BME280;2962;51.312;7.378;2023-05-10T09:14:12;96979.03;;;14.38;100.00
5872;BME280;2962;51.312;7.378;2023-05-10T09:16:38;96978.69;;;14.29;100.00
5872;BME280;2962;51.312;7.378;2023-05-10T09:19:03;96971.13;;;14.51;100.00
5872;BME280;2962;51.312;7.378;2023-05-10T09:21:29;96971.00;;;14.65;100.00
5872;BME280;2962;51.312;7.378;2023-05-10T09:23:55;96965.66;;;14.89;100.00
5872;BME280;2962;51.312;7.378;2023-05-10T09:26:23;96959.53;;;14.74;100.00
5872;BME280;2962;51.312;7.378;2023-05-10T09:28:56;96964.63;;;14.27;100.00
5872;BME280;2962;51.312;7.378;2023-05-10T09:31:22;96981.13;;;13.61;100.00
5872;BME280;2962;51.312;7.378;2023-05-10T09:33:49;96981.28;;;13.25;100.00
5872;BME280;2962;51.312;7.378;2023-05-10T09:36:15;96985.59;;;13.15;100.00
5872;BME280;2962;51.312;7.378;2023-05-10T09:38:51;96990.22;;;13.40;100.00
5872;BME280;2962;51.312;7.378;2023-05-10T09:43:43;96978.50;;;14.58;100.00
5872;BME280;2962;51.312;7.378;2023-05-10T09:46:09;96986.53;;;15.13;100.00
5872;BME280;2962;51.312;7.378;2023-05-10T09:48:42;96977.16;;;15.45;100.00
5872;BME280;2962;51.312;7.378;2023-05-10T09:51:08;96981.78;;;15.18;100.00
5872;BME280;2962;51.312;7.378;2023-05-10T09:53:33;96988.16;;;14.73;100.00
5872;BME280;2962;51.312;7.378;2023-05-10T09:55:58;97003.91;;;14.06;100.00
5872;BME280;2962;51.312;7.378;2023-05-10T09:58:23;96999.28;;;13.08;100.00
5872;BME280;2962;51.312;7.378;2023-05-10T10:00:49;97019.31;;;12.59;100.00
5872;BME280;2962;51.312;7.378;2023-05-10T10:03:19;97006.81;;;12.36;100.00
5872;BME280;2962;51.312;7.378;2023-05-10T10:05:46;97027.88;;;12.21;100.00
5872;BME280;2962;51.312;7.378;2023-05-10T10:08:13;97032.19;;;12.19;100.00
5872;BME280;2962;51.312;7.378;2023-05-10T10:10:39;97031.41;;;12.29;100.00
5872;BME280;2962;51.312;7.378;2023-05-10T10:13:10;97035.69;;;12.55;100.00
5872;BME280;2962;51.312;7.378;2023-05-10T10:15:35;97030.56;;;13.07;100.00
5872;BME280;2962;51.312;7.378;2023-05-10T10:18:01;97035.97;;;13.36;100.00
5872;BME280;2962;51.312;7.378;2023-05-10T10:20:26;97024.66;;;13.30;100.00
5872;BME280;2962;51.312;7.378;2023-05-10T10:22:52;97027.63;;;13.68;100.00
5872;BME280;2962;51.312;7.378;2023-05-10T10:25:19;97032.41;;;14.20;100.00
5872;BME280;2962;51.312;7.378;2023-05-10T10:28:01;97037.81;;;14.34;100.00
5872;BME280;2962;51.312;7.378;2023-05-10T10:30:42;97030.22;;;14.49;100.00
5872;BME280;2962;51.312;7.378;2023-05-10T10:33:40;97019.28;;;13.93;100.00
5872;BME280;2962;51.312;7.378;2023-05-10T10:36:09;97015.16;;;13.53;100.00
5872;BME280;2962;51.312;7.378;2023-05-10T10:38:59;97025.84;;;13.15;100.00
5872;BME280;2962;51.312;7.378;2023-05-10T10:41:52;97031.41;;;12.61;100.00
5872;BME280;2962;51.312;7.378;2023-05-10T10:50:03;97046.84;;;11.71;100.00
5872;BME280;2962;51.312;7.378;2023-05-10T10:52:36;97049.59;;;11.71;100.00
5872;BME280;2962;51.312;7.378;2023-05-10T10:55:07;97059.41;;;11.90;100.00
5872;BME280;2962;51.312;7.378;2023-05-10T11:02:49;97050.84;;;11.99;100.00
5872;BME280;2962;51.312;7.378;2023-05-10T11:05:25;97068.88;;;12.36;100.00
5872;BME280;2962;51.312;7.378;2023-05-10T11:07:55;97047.78;;;12.26;100.00
5872;BME280;2962;51.312;7.378;2023-05-10T11:10:21;97052.47;;;12.07;100.00
5872;BME280;2962;51.312;7.378;2023-05-10T11:13:00;97061.88;;;12.45;100.00
5872;BME280;2962;51.312;7.378;2023-05-10T11:15:39;97074.72;;;12.52;100.00
5872;BME280;2962;51.312;7.378;2023-05-10T11:18:20;97057.16;;;12.60;100.00
5872;BME280;2962;51.312;7.378;2023-05-10T11:21:04;97044.66;;;12.45;100.00
5872;BME280;2962;51.312;7.378;2023-05-10T11:23:51;97054.44;;;12.50;100.00
5872;BME280;2962;51.312;7.378;2023-05-10T11:26:18;97055.97;;;12.79;100.00
5872;BME280;2962;51.312;7.378;2023-05-10T11:28:45;97029.84;;;12.64;100.00
5872;BME280;2962;51.312;7.378;2023-05-10T11:31:13;97041.53;;;12.82;100.00
5872;BME280;2962;51.312;7.378;2023-05-10T11:33:46;97053.63;;;12.92;100.00
5872;BME280;2962;51.312;7.378;2023-05-10T11:36:14;97057.16;;;12.96;100.00
5872;BME280;2962;51.312;7.378;2023-05-10T11:38:40;97068.47;;;12.98;100.00
5872;BME280;2962;51.312;7.378;2023-05-10T11:41:08;97055.97;;;13.04;100.00
5872;BME280;2962;51.312;7.378;2023-05-10T11:43:33;97045.81;;;13.01;100.00
5872;BME280;2962;51.312;7.378;2023-05-10T11:45:59;97058.19;;;13.52;100.00
5872;BME280;2962;51.312;7.378;2023-05-10T11:48:24;97056.22;;;13.53;100.00
5872;BME280;2962;51.312;7.378;2023-05-10T11:50:50;97061.00;;;13.38;100.00
5872;BME280;2962;51.312;7.378;2023-05-10T11:53:15;97062.56;;;13.35;100.00
5872;BME280;2962;51.312;7.378;2023-05-10T11:55:40;97065.28;;;13.32;100.00
5872;BME280;2962;51.312;7.378;2023-05-10T11:58:06;97073.50;;;13.10;100.00
5872;BME280;2962;51.312;7.378;2023-05-10T12:00:31;97065.31;;;13.10;100.00
5872;BME280;2962;51.312;7.378;2023-05-10T12:02:57;97073.94;;;13.23;100.00
5872;BME280;2962;51.312;7.378;2023-05-10T12:05:23;97064.84;;;13.55;100.00
5872;BME280;2962;51.312;7.378;2023-05-10T12:07:48;97071.31;;;13.89;100.00
5872;BME280;2962;51.312;7.378;2023-05-10T12:10:14;97058.44;;;13.86;100.00
5872;BME280;2962;51.312;7.378;2023-05-10T12:12:44;97064.75;;;14.43;100.00
5872;BME280;2962;51.312;7.378;2023-05-10T12:15:11;97058.97;;;14.82;100.00
5872;BME280;2962;51.312;7.378;2023-05-10T12:17:38;97068.22;;;14.99;100.00
5872;BME280;2962;51.312;7.378;2023-05-10T12:20:18;97054.97;;;14.90;100.00
5872;BME280;2962;51.312;7.378;2023-05-10T12:22:46;97050.84;;;14.71;100.00
5872;BME280;2962;51.312;7.378;2023-05-10T12:25:12;97053.44;;;14.89;100.00
5872;BME280;2962;51.312;7.378;2023-05-10T12:27:37;97051.66;;;15.09;100.00
5872;BME280;2962;51.312;7.378;2023-05-10T12:30:03;97064.06;;;15.59;100.00
5872;BME280;2962;51.312;7.378;2023-05-10T12:32:41;97055.69;;;15.73;100.00
5872;BME280;2962;51.312;7.378;2023-05-10T12:35:07;97043.91;;;16.03;100.00
5872;BME280;2962;51.312;7.378;2023-05-10T12:37:34;97047.59;;;15.90;100.00
5872;BME280;2962;51.312;7.378;2023-05-10T12:40:05;97045.50;;;15.70;100.00
5872;BME280;2962;51.312;7.378;2023-05-10T12:42:31;97055.19;;;15.44;100.00
5872;BME280;2962;51.312;7.378;2023-05-10T12:44:56;97073.63;;;15.06;100.00
5872;BME280;2962;51.312;7.378;2023-05-10T12:47:22;97073.47;;;14.79;100.00
5872;BME280;2962;51.312;7.378;2023-05-10T12:49:47;97074.66;;;14.81;100.00
5872;BME280;2962;51.312;7.378;2023-05-10T12:52:12;97081.03;;;14.64;100.00
5872;BME280;2962;51.312;7.378;2023-05-10T12:54:38;97076.03;;;14.48;100.00
5872;BME280;2962;51.312;7.378;2023-05-10T12:57:03;97087.06;;;14.41;100.00
5872;BME280;2962;51.312;7.378;2023-05-10T12:59:28;97084.31;;;14.41;100.00
5872;BME280;2962;51.312;7.378;2023-05-10T13:01:54;97093.94;;;14.04;100.00
5872;BME280;2962;51.312;7.378;2023-05-10T13:04:19;97084.28;;;13.82;100.00
5872;BME280;2962;51.312;7.378;2023-05-10T13:06:44;97093.00;;;13.48;100.00
5872;BME280;2962;51.312;7.378;2023-05-10T13:09:10;97102.41;;;13.40;100.00
5872;BME280;2962;51.312;7.378;2023-05-10T13:11:35;97100.84;;;13.42;100.00
5872;BME280;2962;51.312;7.378;2023-05-10T13:14:01;97087.94;;;13.43;100.00
5872;BME280;2962;51.312;7.378;2023-05-10T13:16:28;97105.81;;;13.76;100.00
5872;BME280;2962;51.312;7.378;2023-05-10T13:18:53;97101.84;;;13.91;100.00
5872;BME280;2962;51.312;7.378;2023-05-10T13:21:18;97097.16;;;13.88;100.00
5872;BME280;2962;51.312;7.378;2023-05-10T13:23:44;97100.19;;;14.05;100.00
5872;BME280;2962;51.312;7.378;2023-05-10T13:26:09;97093.22;;;13.93;100.00
5872;BME280;2962;51.312;7.378;2023-05-10T13:28:34;97097.84;;;14.07;100.00
5872;BME280;2962;51.312;7.378;2023-05-10T13:31:00;97092.50;;;14.52;100.00
5872;BME280;2962;51.312;7.378;2023-05-10T13:33:25;97084.91;;;14.74;100.00
5872;BME280;2962;51.312;7.378;2023-05-10T13:35:50;97096.19;;;14.83;100.00
5872;BME280;2962;51.312;7.378;2023-05-10T13:38:16;97102.31;;;14.98;100.00
5872;BME280;2962;51.312;7.378;2023-05-10T13:40:41;97089.81;;;14.93;100.00
5872;BME280;2962;51.312;7.378;2023-05-10T13:43:06;97094.03;;;15.05;100.00